createdAt,value
2022-10-10T00:00:50.459Z,16.30
2022-10-10T00:03:18.769Z,25.42
2022-10-10T00:05:46.069Z,38.53
2022-10-10T00:08:13.455Z,43.67
2022-10-10T00:10:40.344Z,31.17
2022-10-10T00:13:07.154Z,26.95
2022-10-10T00:15:33.990Z,17.48
2022-10-10T00:18:00.824Z,10.63
2022-10-10T00:20:27.711Z,5.20
2022-10-10T00:22:55.097Z,5.00
2022-10-10T00:25:22.021Z,4.60
2022-10-10T00:27:48.948Z,4.53
2022-10-10T00:30:15.770Z,4.72
2022-10-10T00:32:42.759Z,4.07
2022-10-10T00:35:10.198Z,3.70
2022-10-10T00:37:37.035Z,4.18
2022-10-10T00:40:05.835Z,4.32
2022-10-10T00:42:32.655Z,4.05
2022-10-10T00:45:26.493Z,3.50
2022-10-10T00:47:58.962Z,3.63
2022-10-10T00:50:26.456Z,3.63
2022-10-10T00:52:53.745Z,3.92
2022-10-10T00:55:21.426Z,4.20
2022-10-10T00:57:50.205Z,4.97
2022-10-10T01:00:17.927Z,5.63
2022-10-10T01:02:44.798Z,6.78
2022-10-10T01:05:11.938Z,7.88
2022-10-10T01:07:39.466Z,7.18
2022-10-10T01:10:10.632Z,6.82
2022-10-10T01:13:02.883Z,7.32
2022-10-10T01:15:48.778Z,5.63
2022-10-10T01:18:34.217Z,5.25
2022-10-10T01:21:15.625Z,5.57
2022-10-10T01:24:01.190Z,4.75
2022-10-10T01:26:49.629Z,3.38
2022-10-10T01:29:33.256Z,3.70
2022-10-10T01:32:16.314Z,5.60
2022-10-10T01:35:14.953Z,5.25
2022-10-10T01:38:17.448Z,5.63
2022-10-10T01:41:16.958Z,6.72
2022-10-10T01:43:44.029Z,6.45
2022-10-10T01:46:17.450Z,8.00
2022-10-10T01:48:47.795Z,7.30
2022-10-10T01:51:17.699Z,6.97
2022-10-10T01:54:13.339Z,5.22
2022-10-10T01:56:55.296Z,4.15
2022-10-10T01:59:57.613Z,3.00
2022-10-10T02:02:51.074Z,3.33
2022-10-10T02:05:38.312Z,3.53
2022-10-10T02:08:19.926Z,3.70
2022-10-10T02:10:51.068Z,3.42
2022-10-10T02:13:19.778Z,2.95
2022-10-10T02:15:53.732Z,3.20
2022-10-10T02:18:23.374Z,3.58
2022-10-10T02:20:51.573Z,5.50
2022-10-10T02:23:21.521Z,5.20
2022-10-10T02:25:54.156Z,5.05
2022-10-10T02:28:26.119Z,4.35
2022-10-10T02:30:57.720Z,4.47
2022-10-10T02:33:42.340Z,4.55
2022-10-10T02:36:10.446Z,4.80
2022-10-10T02:38:38.371Z,5.65
2022-10-10T02:41:07.797Z,5.65
2022-10-10T02:43:35.291Z,7.35
2022-10-10T02:46:06.065Z,6.80
2022-10-10T02:48:32.922Z,6.38
2022-10-10T02:51:00.067Z,7.03
2022-10-10T02:53:26.903Z,6.43
2022-10-10T02:55:53.773Z,5.30
2022-10-10T02:58:20.650Z,5.72
2022-10-10T03:00:47.479Z,5.72
2022-10-10T03:03:14.398Z,5.50
2022-10-10T03:05:41.892Z,5.78
2022-10-10T03:08:11.569Z,5.03
2022-10-10T03:10:38.684Z,8.85
2022-10-10T03:13:05.509Z,8.68
2022-10-10T03:15:32.280Z,6.93
2022-10-10T03:17:59.179Z,11.25
2022-10-10T03:20:25.966Z,8.25
2022-10-10T03:22:53.000Z,7.65
2022-10-10T03:25:20.027Z,6.95
2022-10-10T03:27:47.044Z,8.82
2022-10-10T03:30:13.880Z,7.90
2022-10-10T03:32:40.673Z,9.77
2022-10-10T03:35:07.881Z,5.78
2022-10-10T03:37:34.739Z,5.32
2022-10-10T03:40:01.721Z,4.13
2022-10-10T03:42:28.513Z,3.72
2022-10-10T03:44:55.289Z,4.53
2022-10-10T03:47:22.149Z,4.57
2022-10-10T03:49:48.960Z,5.25
2022-10-10T03:52:15.723Z,5.43
2022-10-10T03:54:42.734Z,4.93
2022-10-10T03:57:09.532Z,5.15
2022-10-10T03:59:36.356Z,6.13
2022-10-10T04:02:03.593Z,6.20
2022-10-10T04:04:30.490Z,6.05
2022-10-10T04:06:57.298Z,7.10
2022-10-10T04:09:24.251Z,5.90
2022-10-10T04:11:51.030Z,6.63
2022-10-10T04:14:17.853Z,4.13
2022-10-10T04:16:44.660Z,4.43
2022-10-10T04:19:11.546Z,4.40
2022-10-10T04:21:38.311Z,4.00
2022-10-10T04:24:05.280Z,4.55
2022-10-10T04:26:32.133Z,4.43
2022-10-10T04:28:58.940Z,4.32
2022-10-10T04:31:25.882Z,11.63
2022-10-10T04:33:52.966Z,11.73
2022-10-10T04:36:19.726Z,10.75
2022-10-10T04:38:47.008Z,7.30
2022-10-10T04:41:13.988Z,6.10
2022-10-10T04:43:40.794Z,5.10
2022-10-10T04:46:07.874Z,5.95
2022-10-10T04:48:34.735Z,5.13
2022-10-10T04:51:01.563Z,4.45
2022-10-10T04:53:28.968Z,5.60
2022-10-10T04:55:55.852Z,4.03
2022-10-10T04:58:22.775Z,3.60
2022-10-10T05:00:54.089Z,3.78
2022-10-10T05:03:26.062Z,4.07
2022-10-10T05:05:54.326Z,5.50
2022-10-10T05:08:22.111Z,6.53
2022-10-10T05:10:54.786Z,8.95
2022-10-10T05:13:24.115Z,11.05
2022-10-10T05:15:52.323Z,12.45
2022-10-10T05:18:20.461Z,11.00
2022-10-10T05:20:48.166Z,6.85
2022-10-10T05:23:15.967Z,8.80
2022-10-10T05:25:50.783Z,5.90
2022-10-10T05:28:18.487Z,4.15
2022-10-10T05:30:45.444Z,3.80
2022-10-10T05:33:12.375Z,3.60
2022-10-10T05:35:39.221Z,3.13
2022-10-10T05:38:06.421Z,3.92
2022-10-10T05:40:33.365Z,5.80
2022-10-10T05:43:00.574Z,4.35
2022-10-10T05:45:27.645Z,4.55
2022-10-10T05:47:54.949Z,5.15
2022-10-10T05:50:38.612Z,4.57
2022-10-10T05:53:06.905Z,4.85
2022-10-10T05:55:33.976Z,6.32
2022-10-10T05:58:00.814Z,5.82
2022-10-10T06:00:27.728Z,5.35
2022-10-10T06:02:55.138Z,5.53
2022-10-10T06:05:22.310Z,4.93
2022-10-10T06:08:10.727Z,4.72
2022-10-10T06:10:37.981Z,5.00
2022-10-10T06:13:04.863Z,4.13
2022-10-10T06:18:31.762Z,5.40
2022-10-10T06:21:05.192Z,6.38
2022-10-10T06:23:33.831Z,6.53
2022-10-10T06:26:01.532Z,6.93
2022-10-10T06:28:28.772Z,6.03
2022-10-10T06:31:01.456Z,5.20
2022-10-10T06:33:29.176Z,4.70
2022-10-10T06:35:56.628Z,4.85
2022-10-10T06:38:23.774Z,5.75
2022-10-10T06:40:50.697Z,4.82
2022-10-10T06:43:18.388Z,5.28
2022-10-10T06:49:47.055Z,4.68
2022-10-10T06:52:15.092Z,3.92
2022-10-10T06:54:43.005Z,4.82
2022-10-10T06:57:10.466Z,4.05
2022-10-10T06:59:38.411Z,4.70
2022-10-10T07:02:05.508Z,4.93
2022-10-10T07:04:32.498Z,5.22
2022-10-10T07:06:59.477Z,4.50
2022-10-10T07:09:27.260Z,5.30
2022-10-10T07:11:54.288Z,5.72
2022-10-10T07:14:21.131Z,5.45
2022-10-10T07:16:48.155Z,5.25
2022-10-10T07:19:15.059Z,5.90
2022-10-10T07:21:42.508Z,5.32
2022-10-10T07:24:09.332Z,6.75
2022-10-10T07:26:38.311Z,5.65
2022-10-10T07:29:05.958Z,5.95
2022-10-10T07:31:33.987Z,5.97
2022-10-10T07:34:00.811Z,5.72
2022-10-10T07:36:27.661Z,6.40
2022-10-10T07:38:54.876Z,5.38
2022-10-10T07:41:22.529Z,6.30
2022-10-10T07:43:54.810Z,7.00
2022-10-10T07:46:22.087Z,6.95
2022-10-10T07:48:49.335Z,6.25
2022-10-10T07:51:16.729Z,6.00
2022-10-10T07:53:44.318Z,6.47
2022-10-10T07:56:11.732Z,6.50
2022-10-10T07:58:39.297Z,7.63
2022-10-10T08:01:08.862Z,7.25
2022-10-10T08:03:36.442Z,6.78
2022-10-10T08:06:05.562Z,8.70
2022-10-10T08:08:34.615Z,8.48
2022-10-10T08:11:08.420Z,8.77
2022-10-10T08:13:37.109Z,9.60
2022-10-10T08:16:05.614Z,10.68
2022-10-10T08:18:33.521Z,9.77
2022-10-10T08:21:06.471Z,10.05
2022-10-10T08:23:33.818Z,9.82
